sensor_id;sensor_type;location;lat;lon;timestamp;temperature;humidity
13944;DHT22;7044;53.286;8.534;2023-04-25T00:02:07;7.20;97.60
13944;DHT22;7044;53.286;8.534;2023-04-25T00:04:34;7.20;96.70
13944;DHT22;7044;53.286;8.534;2023-04-25T00:07:04;7.20;94.80
13944;DHT22;7044;53.286;8.534;2023-04-25T00:09:31;7.20;94.80
13944;DHT22;7044;53.286;8.534;2023-04-25T00:11:58;7.10;94.60
13944;DHT22;7044;53.286;8.534;2023-04-25T00:14:26;7.10;93.60
13944;DHT22;7044;53.286;8.534;2023-04-25T00:16:54;7.10;92.50
13944;DHT22;7044;53.286;8.534;2023-04-25T00:19:21;7.10;92.90
13944;DHT22;7044;53.286;8.534;2023-04-25T00:21:48;7.00;90.30
13944;DHT22;7044;53.286;8.534;2023-04-25T00:24:16;7.00;90.90
13944;DHT22;7044;53.286;8.534;2023-04-25T00:26:43;7.00;91.00
13944;DHT22;7044;53.286;8.534;2023-04-25T00:29:10;7.00;90.50
13944;DHT22;7044;53.286;8.534;2023-04-25T00:31:37;7.00;87.60
13944;DHT22;7044;53.286;8.534;2023-04-25T00:34:04;7.00;88.30
13944;DHT22;7044;53.286;8.534;2023-04-25T00:36:30;7.00;80.90
13944;DHT22;7044;53.286;8.534;2023-04-25T00:38:57;7.00;75.20
13944;DHT22;7044;53.286;8.534;2023-04-25T00:41:26;7.00;78.20
13944;DHT22;7044;53.286;8.534;2023-04-25T00:43:54;6.90;68.50
13944;DHT22;7044;53.286;8.534;2023-04-25T00:46:21;7.00;69.90
13944;DHT22;7044;53.286;8.534;2023-04-25T00:48:48;6.90;70.00
13944;DHT22;7044;53.286;8.534;2023-04-25T00:51:19;6.90;68.30
13944;DHT22;7044;53.286;8.534;2023-04-25T00:53:46;6.90;61.10
13944;DHT22;7044;53.286;8.534;2023-04-25T00:56:14;6.90;56.80
13944;DHT22;7044;53.286;8.534;2023-04-25T00:58:42;6.90;57.80
13944;DHT22;7044;53.286;8.534;2023-04-25T01:01:09;6.90;35.20
13944;DHT22;7044;53.286;8.534;2023-04-25T01:03:38;6.80;19.00
13944;DHT22;7044;53.286;8.534;2023-04-25T01:06:07;6.80;15.00
13944;DHT22;7044;53.286;8.534;2023-04-25T01:08:35;6.80;17.50
13944;DHT22;7044;53.286;8.534;2023-04-25T01:11:02;6.80;3.70
13944;DHT22;7044;53.286;8.534;2023-04-25T01:13:30;6.70;10.10
13944;DHT22;7044;53.286;8.534;2023-04-25T01:15:59;6.70;16.70
13944;DHT22;7044;53.286;8.534;2023-04-25T01:18:26;6.70;23.70
13944;DHT22;7044;53.286;8.534;2023-04-25T01:20:53;6.70;23.40
13944;DHT22;7044;53.286;8.534;2023-04-25T01:23:22;6.70;21.30
13944;DHT22;7044;53.286;8.534;2023-04-25T01:25:49;6.60;22.20
13944;DHT22;7044;53.286;8.534;2023-04-25T01:28:16;6.60;22.60
13944;DHT22;7044;53.286;8.534;2023-04-25T01:30:43;6.50;10.70
13944;DHT22;7044;53.286;8.534;2023-04-25T01:33:10;6.50;14.50
13944;DHT22;7044;53.286;8.534;2023-04-25T01:35:37;6.40;10.50
13944;DHT22;7044;53.286;8.534;2023-04-25T01:38:04;6.40;17.60
13944;DHT22;7044;53.286;8.534;2023-04-25T01:40:33;6.30;15.00
13944;DHT22;7044;53.286;8.534;2023-04-25T01:43:00;6.30;17.50
13944;DHT22;7044;53.286;8.534;2023-04-25T01:45:27;6.20;23.80
13944;DHT22;7044;53.286;8.534;2023-04-25T01:47:54;6.20;26.20
13944;DHT22;7044;53.286;8.534;2023-04-25T01:50:25;6.10;30.80
13944;DHT22;7044;53.286;8.534;2023-04-25T01:52:52;6.10;29.70
13944;DHT22;7044;53.286;8.534;2023-04-25T01:55:19;6.00;31.50
13944;DHT22;7044;53.286;8.534;2023-04-25T01:57:47;6.00;33.50
13944;DHT22;7044;53.286;8.534;2023-04-25T02:00:14;6.00;36.90
13944;DHT22;7044;53.286;8.534;2023-04-25T02:02:41;6.00;38.60
13944;DHT22;7044;53.286;8.534;2023-04-25T02:05:08;5.90;39.60
13944;DHT22;7044;53.286;8.534;2023-04-25T02:07:35;5.90;44.70
13944;DHT22;7044;53.286;8.534;2023-04-25T02:10:02;5.90;46.30
13944;DHT22;7044;53.286;8.534;2023-04-25T02:12:28;5.90;47.20
13944;DHT22;7044;53.286;8.534;2023-04-25T02:14:57;5.90;48.40
13944;DHT22;7044;53.286;8.534;2023-04-25T02:17:24;5.90;49.30
13944;DHT22;7044;53.286;8.534;2023-04-25T02:19:51;5.90;48.60
13944;DHT22;7044;53.286;8.534;2023-04-25T02:22:18;5.90;50.30
13944;DHT22;7044;53.286;8.534;2023-04-25T02:24:45;5.90;53.80
13944;DHT22;7044;53.286;8.534;2023-04-25T02:27:12;5.90;56.10
13944;DHT22;7044;53.286;8.534;2023-04-25T02:29:39;6.00;58.10
13944;DHT22;7044;53.286;8.534;2023-04-25T02:32:07;6.00;56.80
13944;DHT22;7044;53.286;8.534;2023-04-25T02:34:34;6.00;55.10
13944;DHT22;7044;53.286;8.534;2023-04-25T02:37:01;6.10;56.20
13944;DHT22;7044;53.286;8.534;2023-04-25T02:39:27;6.10;51.30
13944;DHT22;7044;53.286;8.534;2023-04-25T02:41:54;6.20;51.30
13944;DHT22;7044;53.286;8.534;2023-04-25T02:44:21;6.20;52.10
13944;DHT22;7044;53.286;8.534;2023-04-25T02:46:48;6.20;52.80
13944;DHT22;7044;53.286;8.534;2023-04-25T02:49:16;6.10;51.70
13944;DHT22;7044;53.286;8.534;2023-04-25T02:51:42;6.20;53.20
13944;DHT22;7044;53.286;8.534;2023-04-25T02:54:09;6.20;51.70
13944;DHT22;7044;53.286;8.534;2023-04-25T02:56:36;6.10;52.50
13944;DHT22;7044;53.286;8.534;2023-04-25T02:59:03;6.10;49.70
13944;DHT22;7044;53.286;8.534;2023-04-25T03:01:30;6.10;46.80
13944;DHT22;7044;53.286;8.534;2023-04-25T03:03:56;6.00;46.20
13944;DHT22;7044;53.286;8.534;2023-04-25T03:06:24;6.00;50.50
13944;DHT22;7044;53.286;8.534;2023-04-25T03:08:51;5.90;46.70
13944;DHT22;7044;53.286;8.534;2023-04-25T03:11:19;5.90;45.30
13944;DHT22;7044;53.286;8.534;2023-04-25T03:13:46;5.80;43.40
13944;DHT22;7044;53.286;8.534;2023-04-25T03:16:13;5.70;45.50
13944;DHT22;7044;53.286;8.534;2023-04-25T03:18:40;5.70;47.60
13944;DHT22;7044;53.286;8.534;2023-04-25T03:21:06;5.70;43.20
13944;DHT22;7044;53.286;8.534;2023-04-25T03:23:35;5.60;46.60
13944;DHT22;7044;53.286;8.534;2023-04-25T03:26:01;5.60;47.40
13944;DHT22;7044;53.286;8.534;2023-04-25T03:28:28;5.60;46.70
13944;DHT22;7044;53.286;8.534;2023-04-25T03:30:55;5.60;45.00
13944;DHT22;7044;53.286;8.534;2023-04-25T03:33:22;5.50;46.50
13944;DHT22;7044;53.286;8.534;2023-04-25T03:35:49;5.50;43.60
13944;DHT22;7044;53.286;8.534;2023-04-25T03:38:16;5.60;41.00
13944;DHT22;7044;53.286;8.534;2023-04-25T03:40:45;5.50;36.10
13944;DHT22;7044;53.286;8.534;2023-04-25T03:43:11;5.40;29.90
13944;DHT22;7044;53.286;8.534;2023-04-25T03:45:38;5.40;26.60
13944;DHT22;7044;53.286;8.534;2023-04-25T03:48:05;5.40;29.20
13944;DHT22;7044;53.286;8.534;2023-04-25T03:50:32;5.40;25.30
13944;DHT22;7044;53.286;8.534;2023-04-25T03:52:58;5.50;24.50
13944;DHT22;7044;53.286;8.534;2023-04-25T03:55:25;5.50;24.10
13944;DHT22;7044;53.286;8.534;2023-04-25T03:57:53;5.50;20.30
13944;DHT22;7044;53.286;8.534;2023-04-25T04:00:20;5.50;12.30
13944;DHT22;7044;53.286;8.534;2023-04-25T04:02:47;5.50;5.60
13944;DHT22;7044;53.286;8.534;2023-04-25T04:05:14;5.50;9.50
13944;DHT22;7044;53.286;8.534;2023-04-25T04:07:41;5.50;12.50
13944;DHT22;7044;53.286;8.534;2023-04-25T04:10:09;5.80;4.90
13944;DHT22;7044;53.286;8.534;2023-04-25T04:12:36;5.60;1.00
13944;DHT22;7044;53.286;8.534;2023-04-25T04:15:05;5.60;1.00
13944;DHT22;7044;53.286;8.534;2023-04-25T04:17:32;5.50;1.00
13944;DHT22;7044;53.286;8.534;2023-04-25T04:19:59;5.60;1.00
13944;DHT22;7044;53.286;8.534;2023-04-25T04:22:26;5.60;8.40
13944;DHT22;7044;53.286;8.534;2023-04-25T04:24:53;5.50;9.90
13944;DHT22;7044;53.286;8.534;2023-04-25T04:27:21;5.50;16.40
13944;DHT22;7044;53.286;8.534;2023-04-25T04:29:48;5.60;20.80
13944;DHT22;7044;53.286;8.534;2023-04-25T04:32:17;5.60;25.30
13944;DHT22;7044;53.286;8.534;2023-04-25T04:34:43;5.60;25.30
13944;DHT22;7044;53.286;8.534;2023-04-25T04:37:13;5.60;25.30
13944;DHT22;7044;53.286;8.534;2023-04-25T04:39:40;5.60;25.00
13944;DHT22;7044;53.286;8.534;2023-04-25T04:42:07;5.60;28.70
13944;DHT22;7044;53.286;8.534;2023-04-25T04:44:34;5.70;35.40
13944;DHT22;7044;53.286;8.534;2023-04-25T04:47:02;5.70;33.20
13944;DHT22;7044;53.286;8.534;2023-04-25T04:49:33;5.80;34.60
13944;DHT22;7044;53.286;8.534;2023-04-25T04:51:59;5.80;35.60
13944;DHT22;7044;53.286;8.534;2023-04-25T04:54:26;5.80;30.60
13944;DHT22;7044;53.286;8.534;2023-04-25T04:56:53;5.80;28.40
13944;DHT22;7044;53.286;8.534;2023-04-25T04:59:20;5.80;31.60
13944;DHT22;7044;53.286;8.534;2023-04-25T05:01:47;5.80;27.50
13944;DHT22;7044;53.286;8.534;2023-04-25T05:04:13;5.80;24.90
13944;DHT22;7044;53.286;8.534;2023-04-25T05:06:42;5.80;23.30
13944;DHT22;7044;53.286;8.534;2023-04-25T05:09:09;5.80;22.40
13944;DHT22;7044;53.286;8.534;2023-04-25T05:11:36;5.80;23.90
13944;DHT22;7044;53.286;8.534;2023-04-25T05:14:03;5.80;28.10
13944;DHT22;7044;53.286;8.534;2023-04-25T05:16:29;5.80;25.80
13944;DHT22;7044;53.286;8.534;2023-04-25T05:18:56;5.90;27.10
13944;DHT22;7044;53.286;8.534;2023-04-25T05:21:23;6.10;52.50
13944;DHT22;7044;53.286;8.534;2023-04-25T05:23:52;6.30;41.40
13944;DHT22;7044;53.286;8.534;2023-04-25T05:26:18;6.20;18.90
13944;DHT22;7044;53.286;8.534;2023-04-25T05:28:46;6.10;10.90
13944;DHT22;7044;53.286;8.534;2023-04-25T05:31:13;6.00;3.80
13944;DHT22;7044;53.286;8.534;2023-04-25T05:33:39;5.90;5.20
13944;DHT22;7044;53.286;8.534;2023-04-25T05:36:07;5.80;7.90
13944;DHT22;7044;53.286;8.534;2023-04-25T05:38:34;5.80;12.20
13944;DHT22;7044;53.286;8.534;2023-04-25T05:41:02;5.70;13.00
13944;DHT22;7044;53.286;8.534;2023-04-25T05:43:29;5.80;21.30
13944;DHT22;7044;53.286;8.534;2023-04-25T05:45:56;5.80;25.10
13944;DHT22;7044;53.286;8.534;2023-04-25T05:48:23;5.90;30.00
13944;DHT22;7044;53.286;8.534;2023-04-25T05:50:49;6.00;29.60
13944;DHT22;7044;53.286;8.534;2023-04-25T05:53:16;6.00;24.30
13944;DHT22;7044;53.286;8.534;2023-04-25T05:55:43;6.10;27.10
13944;DHT22;7044;53.286;8.534;2023-04-25T05:58:11;6.10;25.40
13944;DHT22;7044;53.286;8.534;2023-04-25T06:00:38;6.10;23.90
13944;DHT22;7044;53.286;8.534;2023-04-25T06:03:06;6.20;21.40
13944;DHT22;7044;53.286;8.534;2023-04-25T06:05:35;6.10;26.10
13944;DHT22;7044;53.286;8.534;2023-04-25T06:08:01;6.20;25.10
13944;DHT22;7044;53.286;8.534;2023-04-25T06:10:28;6.20;20.40
13944;DHT22;7044;53.286;8.534;2023-04-25T06:12:55;6.30;24.10
13944;DHT22;7044;53.286;8.534;2023-04-25T06:15:23;6.30;21.00
13944;DHT22;7044;53.286;8.534;2023-04-25T06:17:50;6.30;16.60
13944;DHT22;7044;53.286;8.534;2023-04-25T06:20:17;6.30;10.40
13944;DHT22;7044;53.286;8.534;2023-04-25T06:22:45;6.20;16.90
13944;DHT22;7044;53.286;8.534;2023-04-25T06:25:11;5.90;11.00
13944;DHT22;7044;53.286;8.534;2023-04-25T06:27:38;5.60;22.80
13944;DHT22;7044;53.286;8.534;2023-04-25T06:30:06;5.60;31.10
13944;DHT22;7044;53.286;8.534;2023-04-25T06:32:34;5.60;30.40
13944;DHT22;7044;53.286;8.534;2023-04-25T06:35:01;5.60;24.00
13944;DHT22;7044;53.286;8.534;2023-04-25T06:37:28;5.60;13.50
13944;DHT22;7044;53.286;8.534;2023-04-25T06:39:55;5.70;13.10
13944;DHT22;7044;53.286;8.534;2023-04-25T06:42:22;5.80;17.90
13944;DHT22;7044;53.286;8.534;2023-04-25T06:44:49;5.80;25.80
13944;DHT22;7044;53.286;8.534;2023-04-25T06:47:16;5.90;35.40
13944;DHT22;7044;53.286;8.534;2023-04-25T06:49:44;6.10;37.60
13944;DHT22;7044;53.286;8.534;2023-04-25T06:52:10;6.10;41.70
13944;DHT22;7044;53.286;8.534;2023-04-25T06:54:37;6.20;36.30
13944;DHT22;7044;53.286;8.534;2023-04-25T06:57:04;6.20;31.90
13944;DHT22;7044;53.286;8.534;2023-04-25T06:59:31;6.30;26.70
13944;DHT22;7044;53.286;8.534;2023-04-25T07:01:58;6.70;17.20
13944;DHT22;7044;53.286;8.534;2023-04-25T07:04:25;6.30;15.10
13944;DHT22;7044;53.286;8.534;2023-04-25T07:06:53;6.30;16.50
13944;DHT22;7044;53.286;8.534;2023-04-25T07:09:20;6.30;6.50
13944;DHT22;7044;53.286;8.534;2023-04-25T07:11:47;6.50;12.50
13944;DHT22;7044;53.286;8.534;2023-04-25T07:14:13;6.50;1.70
13944;DHT22;7044;53.286;8.534;2023-04-25T07:16:40;6.60;1.00
13944;DHT22;7044;53.286;8.534;2023-04-25T07:19:07;6.60;1.00
13944;DHT22;7044;53.286;8.534;2023-04-25T07:21:34;6.90;1.00
13944;DHT22;7044;53.286;8.534;2023-04-25T07:24:03;7.00;1.00
13944;DHT22;7044;53.286;8.534;2023-04-25T07:26:30;7.10;1.30
13944;DHT22;7044;53.286;8.534;2023-04-25T07:28:57;7.10;99.90
13944;DHT22;7044;53.286;8.534;2023-04-25T07:31:24;7.20;99.90
13944;DHT22;7044;53.286;8.534;2023-04-25T07:33:51;7.20;99.90
13944;DHT22;7044;53.286;8.534;2023-04-25T07:36:17;7.10;99.90
13944;DHT22;7044;53.286;8.534;2023-04-25T07:38:44;7.00;99.90
13944;DHT22;7044;53.286;8.534;2023-04-25T07:41:12;7.00;99.90
13944;DHT22;7044;53.286;8.534;2023-04-25T07:43:39;7.00;99.90
13944;DHT22;7044;53.286;8.534;2023-04-25T07:46:06;6.90;99.90
13944;DHT22;7044;53.286;8.534;2023-04-25T07:48:33;6.90;99.90
13944;DHT22;7044;53.286;8.534;2023-04-25T07:50:59;6.90;99.90
13944;DHT22;7044;53.286;8.534;2023-04-25T07:53:26;6.90;99.90
13944;DHT22;7044;53.286;8.534;2023-04-25T07:55:53;6.90;99.90
13944;DHT22;7044;53.286;8.534;2023-04-25T07:58:21;7.00;99.90
13944;DHT22;7044;53.286;8.534;2023-04-25T08:00:48;7.10;99.90
13944;DHT22;7044;53.286;8.534;2023-04-25T08:03:15;7.00;99.90
13944;DHT22;7044;53.286;8.534;2023-04-25T08:05:42;7.10;99.90
13944;DHT22;7044;53.286;8.534;2023-04-25T08:08:08;7.20;99.90
13944;DHT22;7044;53.286;8.534;2023-04-25T08:10:36;7.10;99.90
13944;DHT22;7044;53.286;8.534;2023-04-25T08:13:02;7.30;99.90
13944;DHT22;7044;53.286;8.534;2023-04-25T08:15:30;7.20;99.90
13944;DHT22;7044;53.286;8.534;2023-04-25T08:17:57;7.20;99.90
13944;DHT22;7044;53.286;8.534;2023-04-25T08:20:24;7.20;99.90
13944;DHT22;7044;53.286;8.534;2023-04-25T08:22:51;7.20;99.90
13944;DHT22;7044;53.286;8.534;2023-04-25T08:25:18;7.30;99.90
13944;DHT22;7044;53.286;8.534;2023-04-25T08:27:45;7.30;99.90
13944;DHT22;7044;53.286;8.534;2023-04-25T08:30:12;7.30;99.90
13944;DHT22;7044;53.286;8.534;2023-04-25T08:32:41;7.40;99.90
13944;DHT22;7044;53.286;8.534;2023-04-25T08:35:08;7.50;99.90
13944;DHT22;7044;53.286;8.534;2023-04-25T08:37:35;7.60;99.90
13944;DHT22;7044;53.286;8.534;2023-04-25T08:40:04;7.80;99.90
13944;DHT22;7044;53.286;8.534;2023-04-25T08:42:33;7.90;99.90
13944;DHT22;7044;53.286;8.534;2023-04-25T08:45:01;8.00;99.90
13944;DHT22;7044;53.286;8.534;2023-04-25T08:47:30;8.20;99.90
13944;DHT22;7044;53.286;8.534;2023-04-25T08:50:02;8.30;99.90
13944;DHT22;7044;53.286;8.534;2023-04-25T08:52:35;8.30;99.90
13944;DHT22;7044;53.286;8.534;2023-04-25T08:55:03;8.10;99.90
13944;DHT22;7044;53.286;8.534;2023-04-25T08:57:31;7.90;99.90
13944;DHT22;7044;53.286;8.534;2023-04-25T08:59:58;7.70;99.90
13944;DHT22;7044;53.286;8.534;2023-04-25T09:02:26;7.10;99.90
13944;DHT22;7044;53.286;8.534;2023-04-25T09:04:54;6.60;99.90
13944;DHT22;7044;53.286;8.534;2023-04-25T09:07:22;6.30;99.90
13944;DHT22;7044;53.286;8.534;2023-04-25T09:09:51;6.20;99.90
13944;DHT22;7044;53.286;8.534;2023-04-25T09:12:18;6.10;99.90
13944;DHT22;7044;53.286;8.534;2023-04-25T09:15:01;6.00;99.90
13944;DHT22;7044;53.286;8.534;2023-04-25T09:17:29;6.00;99.90
13944;DHT22;7044;53.286;8.534;2023-04-25T09:20:05;6.00;99.90
13944;DHT22;7044;53.286;8.534;2023-04-25T09:22:34;6.10;99.90
13944;DHT22;7044;53.286;8.534;2023-04-25T09:25:03;6.20;99.90
13944;DHT22;7044;53.286;8.534;2023-04-25T09:27:32;6.30;99.90
13944;DHT22;7044;53.286;8.534;2023-04-25T09:29:59;6.40;99.90
13944;DHT22;7044;53.286;8.534;2023-04-25T09:32:26;6.70;99.90
13944;DHT22;7044;53.286;8.534;2023-04-25T09:34:55;7.00;99.90
13944;DHT22;7044;53.286;8.534;2023-04-25T09:37:23;7.30;99.90
13944;DHT22;7044;53.286;8.534;2023-04-25T09:39:53;7.50;99.90
13944;DHT22;7044;53.286;8.534;2023-04-25T09:42:22;7.70;99.90
13944;DHT22;7044;53.286;8.534;2023-04-25T09:44:51;7.80;99.90
13944;DHT22;7044;53.286;8.534;2023-04-25T09:47:19;7.90;99.90
13944;DHT22;7044;53.286;8.534;2023-04-25T09:49:47;8.00;99.90
13944;DHT22;7044;53.286;8.534;2023-04-25T09:52:15;8.20;99.90
13944;DHT22;7044;53.286;8.534;2023-04-25T09:54:43;8.20;99.90
13944;DHT22;7044;53.286;8.534;2023-04-25T09:57:13;8.40;99.90
13944;DHT22;7044;53.286;8.534;2023-04-25T09:59:44;8.60;99.90
13944;DHT22;7044;53.286;8.534;2023-04-25T10:02:12;8.60;99.90
13944;DHT22;7044;53.286;8.534;2023-04-25T10:04:39;8.70;99.90
13944;DHT22;7044;53.286;8.534;2023-04-25T10:07:08;8.70;99.90
13944;DHT22;7044;53.286;8.534;2023-04-25T10:09:37;8.60;99.90
13944;DHT22;7044;53.286;8.534;2023-04-25T10:12:06;8.50;99.90
13944;DHT22;7044;53.286;8.534;2023-04-25T10:14:35;8.30;99.90
13944;DHT22;7044;53.286;8.534;2023-04-25T10:17:02;8.30;99.90
13944;DHT22;7044;53.286;8.534;2023-04-25T10:19:29;8.30;99.90
13944;DHT22;7044;53.286;8.534;2023-04-25T10:22:03;8.40;99.90
13944;DHT22;7044;53.286;8.534;2023-04-25T10:24:31;8.30;99.90
13944;DHT22;7044;53.286;8.534;2023-04-25T10:26:58;8.30;99.90
13944;DHT22;7044;53.286;8.534;2023-04-25T10:29:25;8.10;99.90
13944;DHT22;7044;53.286;8.534;2023-04-25T10:31:54;8.20;99.90
13944;DHT22;7044;53.286;8.534;2023-04-25T10:34:24;8.20;99.90
13944;DHT22;7044;53.286;8.534;2023-04-25T10:36:52;8.00;99.90
13944;DHT22;7044;53.286;8.534;2023-04-25T10:39:23;7.80;99.90
13944;DHT22;7044;53.286;8.534;2023-04-25T10:41:56;7.60;99.90
13944;DHT22;7044;53.286;8.534;2023-04-25T10:44:26;7.60;99.90
13944;DHT22;7044;53.286;8.534;2023-04-25T10:46:55;7.60;99.90
13944;DHT22;7044;53.286;8.534;2023-04-25T10:49:35;7.70;99.90
13944;DHT22;7044;53.286;8.534;2023-04-25T10:52:17;7.70;99.90
13944;DHT22;7044;53.286;8.534;2023-04-25T10:54:48;7.90;99.90
13944;DHT22;7044;53.286;8.534;2023-04-25T10:57:27;8.20;99.90
13944;DHT22;7044;53.286;8.534;2023-04-25T10:59:54;8.30;99.90
13944;DHT22;7044;53.286;8.534;2023-04-25T11:02:26;8.30;99.90
13944;DHT22;7044;53.286;8.534;2023-04-25T11:04:54;8.20;99.90
13944;DHT22;7044;53.286;8.534;2023-04-25T11:07:29;7.80;99.90
13944;DHT22;7044;53.286;8.534;2023-04-25T11:10:02;7.60;99.90
13944;DHT22;7044;53.286;8.534;2023-04-25T11:12:30;7.40;99.90
13944;DHT22;7044;53.286;8.534;2023-04-25T11:15:02;7.50;99.90
13944;DHT22;7044;53.286;8.534;2023-04-25T11:17:31;7.60;99.90
13944;DHT22;7044;53.286;8.534;2023-04-25T11:19:58;7.70;99.90
13944;DHT22;7044;53.286;8.534;2023-04-25T11:22:26;7.60;99.90
13944;DHT22;7044;53.286;8.534;2023-04-25T11:24:55;7.60;99.90
13944;DHT22;7044;53.286;8.534;2023-04-25T11:27:22;7.60;99.90
13944;DHT22;7044;53.286;8.534;2023-04-25T11:29:50;7.80;99.90
13944;DHT22;7044;53.286;8.534;2023-04-25T11:32:17;8.10;99.90
13944;DHT22;7044;53.286;8.534;2023-04-25T11:34:46;8.30;99.90
13944;DHT22;7044;53.286;8.534;2023-04-25T11:37:14;7.50;99.90
13944;DHT22;7044;53.286;8.534;2023-04-25T11:39:44;7.00;99.90
13944;DHT22;7044;53.286;8.534;2023-04-25T11:42:14;6.90;99.90
13944;DHT22;7044;53.286;8.534;2023-04-25T11:44:41;6.90;99.90
13944;DHT22;7044;53.286;8.534;2023-04-25T11:47:07;6.90;99.90
13944;DHT22;7044;53.286;8.534;2023-04-25T11:49:35;7.00;99.90
13944;DHT22;7044;53.286;8.534;2023-04-25T11:52:06;7.20;99.90
13944;DHT22;7044;53.286;8.534;2023-04-25T11:54:35;7.40;99.90
13944;DHT22;7044;53.286;8.534;2023-04-25T11:57:02;7.70;99.90
13944;DHT22;7044;53.286;8.534;2023-04-25T11:59:29;7.90;99.90
13944;DHT22;7044;53.286;8.534;2023-04-25T12:01:56;8.00;99.90
13944;DHT22;7044;53.286;8.534;2023-04-25T12:04:25;8.20;99.90
13944;DHT22;7044;53.286;8.534;2023-04-25T12:06:54;8.30;99.90
13944;DHT22;7044;53.286;8.534;2023-04-25T12:09:29;8.30;99.90
13944;DHT22;7044;53.286;8.534;2023-04-25T12:11:57;8.50;99.90
13944;DHT22;7044;53.286;8.534;2023-04-25T12:14:26;8.50;99.90
13944;DHT22;7044;53.286;8.534;2023-04-25T12:16:55;8.40;99.90
13944;DHT22;7044;53.286;8.534;2023-04-25T12:19:23;8.50;99.90
13944;DHT22;7044;53.286;8.534;2023-04-25T12:21:50;8.80;99.90
13944;DHT22;7044;53.286;8.534;2023-04-25T12:24:18;9.10;99.90
13944;DHT22;7044;53.286;8.534;2023-04-25T12:26:52;8.90;99.90
13944;DHT22;7044;53.286;8.534;2023-04-25T12:29:21;8.80;99.90
13944;DHT22;7044;53.286;8.534;2023-04-25T12:31:48;8.60;99.90
13944;DHT22;7044;53.286;8.534;2023-04-25T12:34:15;8.50;99.90
13944;DHT22;7044;53.286;8.534;2023-04-25T12:36:42;8.60;99.90
13944;DHT22;7044;53.286;8.534;2023-04-25T12:39:14;8.60;99.90
13944;DHT22;7044;53.286;8.534;2023-04-25T12:41:41;8.60;99.90
13944;DHT22;7044;53.286;8.534;2023-04-25T12:44:09;8.70;99.90
13944;DHT22;7044;53.286;8.534;2023-04-25T12:46:36;8.80;99.90
13944;DHT22;7044;53.286;8.534;2023-04-25T12:49:03;9.00;99.90
13944;DHT22;7044;53.286;8.534;2023-04-25T12:51:31;9.00;99.90
13944;DHT22;7044;53.286;8.534;2023-04-25T12:53:58;9.00;99.90
13944;DHT22;7044;53.286;8.534;2023-04-25T12:56:25;9.00;99.90
13944;DHT22;7044;53.286;8.534;2023-04-25T12:58:52;9.10;99.90
13944;DHT22;7044;53.286;8.534;2023-04-25T13:01:21;9.20;99.90
13944;DHT22;7044;53.286;8.534;2023-04-25T13:03:48;9.30;99.90
13944;DHT22;7044;53.286;8.534;2023-04-25T13:06:15;9.30;99.90
13944;DHT22;7044;53.286;8.534;2023-04-25T13:08:42;9.30;99.90
13944;DHT22;7044;53.286;8.534;2023-04-25T13:11:10;9.30;99.90
13944;DHT22;7044;53.286;8.534;2023-04-25T13:13:37;9.30;99.90
13944;DHT22;7044;53.286;8.534;2023-04-25T13:16:05;9.20;99.90
13944;DHT22;7044;53.286;8.534;2023-04-25T13:18:34;8.90;99.90
13944;DHT22;7044;53.286;8.534;2023-04-25T13:21:01;8.60;99.90
13944;DHT22;7044;53.286;8.534;2023-04-25T13:23:29;8.60;99.90
13944;DHT22;7044;53.286;8.534;2023-04-25T13:25:56;8.50;99.90
13944;DHT22;7044;53.286;8.534;2023-04-25T13:28:23;8.40;99.90
13944;DHT22;7044;53.286;8.534;2023-04-25T13:30:50;7.70;99.90
13944;DHT22;7044;53.286;8.534;2023-04-25T13:33:17;7.50;99.90
13944;DHT22;7044;53.286;8.534;2023-04-25T13:35:46;7.50;99.90
13944;DHT22;7044;53.286;8.534;2023-04-25T13:38:19;7.60;99.90
13944;DHT22;7044;53.286;8.534;2023-04-25T13:40:46;7.60;99.90
13944;DHT22;7044;53.286;8.534;2023-04-25T13:43:13;7.60;99.90
13944;DHT22;7044;53.286;8.534;2023-04-25T13:45:40;7.60;99.90
13944;DHT22;7044;53.286;8.534;2023-04-25T13:48:06;7.70;99.90
13944;DHT22;7044;53.286;8.534;2023-04-25T13:50:33;7.90;99.90
13944;DHT22;7044;53.286;8.534;2023-04-25T13:53:02;8.20;99.90
13944;DHT22;7044;53.286;8.534;2023-04-25T13:55:28;8.50;99.90
13944;DHT22;7044;53.286;8.534;2023-04-25T13:57:55;8.50;99.90
13944;DHT22;7044;53.286;8.534;2023-04-25T14:00:22;8.30;99.90
13944;DHT22;7044;53.286;8.534;2023-04-25T14:02:49;7.80;99.90
13944;DHT22;7044;53.286;8.534;2023-04-25T14:05:16;6.90;99.90
13944;DHT22;7044;53.286;8.534;2023-04-25T14:07:43;6.40;99.90
13944;DHT22;7044;53.286;8.534;2023-04-25T14:10:11;6.10;99.90
13944;DHT22;7044;53.286;8.534;2023-04-25T14:12:38;6.20;99.90
13944;DHT22;7044;53.286;8.534;2023-04-25T14:15:06;6.40;99.90
13944;DHT22;7044;53.286;8.534;2023-04-25T14:20:00;6.60;99.90
13944;DHT22;7044;53.286;8.534;2023-04-25T14:22:27;6.90;99.90
13944;DHT22;7044;53.286;8.534;2023-04-25T14:24:53;7.10;99.90
13944;DHT22;7044;53.286;8.534;2023-04-25T14:27:22;7.30;99.90
13944;DHT22;7044;53.286;8.534;2023-04-25T14:29:48;7.50;99.90
13944;DHT22;7044;53.286;8.534;2023-04-25T14:32:15;7.90;99.90
13944;DHT22;7044;53.286;8.534;2023-04-25T14:34:42;8.00;99.90
13944;DHT22;7044;53.286;8.534;2023-04-25T14:37:09;8.00;99.90
13944;DHT22;7044;53.286;8.534;2023-04-25T14:39:36;8.00;99.90
13944;DHT22;7044;53.286;8.534;2023-04-25T14:42:03;8.00;99.90
13944;DHT22;7044;53.286;8.534;2023-04-25T14:44:31;8.00;99.90
13944;DHT22;7044;53.286;8.534;2023-04-25T14:46:58;7.90;99.90
13944;DHT22;7044;53.286;8.534;2023-04-25T14:49:25;7.30;99.90
13944;DHT22;7044;53.286;8.534;2023-04-25T14:51:53;7.20;99.90
13944;DHT22;7044;53.286;8.534;2023-04-25T14:54:20;7.00;99.90
13944;DHT22;7044;53.286;8.534;2023-04-25T14:56:47;7.00;99.90
13944;DHT22;7044;53.286;8.534;2023-04-25T14:59:14;7.00;99.90
13944;DHT22;7044;53.286;8.534;2023-04-25T15:01:42;6.90;99.90
13944;DHT22;7044;53.286;8.534;2023-04-25T15:04:09;7.10;99.90
13944;DHT22;7044;53.286;8.534;2023-04-25T15:06:37;7.20;99.90
13944;DHT22;7044;53.286;8.534;2023-04-25T15:09:04;7.50;99.90
13944;DHT22;7044;53.286;8.534;2023-04-25T15:11:31;7.60;99.90
13944;DHT22;7044;53.286;8.534;2023-04-25T15:13:58;7.80;99.90
13944;DHT22;7044;53.286;8.534;2023-04-25T15:16:25;7.80;99.90
13944;DHT22;7044;53.286;8.534;2023-04-25T15:18:53;7.80;99.90
13944;DHT22;7044;53.286;8.534;2023-04-25T15:21:20;7.80;99.90
13944;DHT22;7044;53.286;8.534;2023-04-25T15:23:47;7.80;99.90
13944;DHT22;7044;53.286;8.534;2023-04-25T15:26:14;7.70;99.90
13944;DHT22;7044;53.286;8.534;2023-04-25T15:28:41;7.70;99.90
13944;DHT22;7044;53.286;8.534;2023-04-25T15:31:08;7.70;99.90
13944;DHT22;7044;53.286;8.534;2023-04-25T15:33:34;7.70;99.90
13944;DHT22;7044;53.286;8.534;2023-04-25T15:36:03;7.80;99.90
13944;DHT22;7044;53.286;8.534;2023-04-25T15:38:30;8.00;99.90
13944;DHT22;7044;53.286;8.534;2023-04-25T15:40:57;8.10;99.90
13944;DHT22;7044;53.286;8.534;2023-04-25T15:43:24;8.00;99.90
13944;DHT22;7044;53.286;8.534;2023-04-25T15:45:51;7.80;99.90
13944;DHT22;7044;53.286;8.534;2023-04-25T15:48:18;7.70;99.90
13944;DHT22;7044;53.286;8.534;2023-04-25T15:50:44;7.70;99.90
13944;DHT22;7044;53.286;8.534;2023-04-25T15:53:13;5.40;99.90
13944;DHT22;7044;53.286;8.534;2023-04-25T15:55:40;7.90;99.90
13944;DHT22;7044;53.286;8.534;2023-04-25T15:58:09;7.80;99.90
13944;DHT22;7044;53.286;8.534;2023-04-25T16:00:36;7.80;99.90
13944;DHT22;7044;53.286;8.534;2023-04-25T16:03:04;7.90;99.90
13944;DHT22;7044;53.286;8.534;2023-04-25T16:05:31;8.00;99.90
13944;DHT22;7044;53.286;8.534;2023-04-25T16:07:58;8.20;99.90